RA5608G UUBI-UWKE
Flight info
| Callsign | RA5608G |
|---|---|
| Flight time | 1h 33m |
| Altitude | 29000 |
| Route | ROKUR1B ROKUR T784 ADMUL L94 NAMER T765 GEMKI GEMKI4M |
| Aircraft | SF50/L-BDGRSWY/LB2U2 |
Departure
| Time | 2026-04-26 18:35 |
|---|---|
| Airport | Ivanovo South Airport (UUBI) |
Arrival
| Time | 2026-04-26 20:08 |
|---|---|
| Airport | Begishevo Airport (UWKE) |
| Time | Latitude | Longitude | Altitude | Speed | Heading |
|---|---|---|---|---|---|
| 2026-04-26 18:12 | 56.94018 | 40.94494 | 408 ft | 0 kts | 31° |
| 2026-04-26 18:31 | 56.94039 | 40.94506 | 410 ft | 9 kts | 346° |
| 2026-04-26 18:31 | 56.94070 | 40.94385 | 407 ft | 10 kts | 283° |
| 2026-04-26 18:32 | 56.94084 | 40.94272 | 408 ft | 11 kts | 283° |
| 2026-04-26 18:32 | 56.94058 | 40.94189 | 408 ft | 6 kts | 210° |
| 2026-04-26 18:32 | 56.94018 | 40.94143 | 407 ft | 10 kts | 213° |
| 2026-04-26 18:32 | 56.93972 | 40.94072 | 409 ft | 9 kts | 262° |
| 2026-04-26 18:33 | 56.94012 | 40.93916 | 409 ft | 20 kts | 301° |
| 2026-04-26 18:33 | 56.94101 | 40.93646 | 410 ft | 27 kts | 302° |
| 2026-04-26 18:33 | 56.94192 | 40.93387 | 409 ft | 22 kts | 289° |
| 2026-04-26 18:33 | 56.94203 | 40.93333 | 409 ft | 0 kts | 297° |
| 2026-04-26 18:34 | 56.94205 | 40.93327 | 409 ft | 8 kts | 298° |
| 2026-04-26 18:34 | 56.94337 | 40.92922 | 407 ft | 65 kts | 302° |
| 2026-04-26 18:34 | 56.94660 | 40.91955 | 439 ft | 106 kts | 301° |
| 2026-04-26 18:35 | 56.95052 | 40.90766 | 778 ft | 109 kts | 301° |
| 2026-04-26 18:35 | 56.95420 | 40.89564 | 1020 ft | 119 kts | 282° |
| 2026-04-26 18:35 | 56.95228 | 40.88063 | 1002 ft | 133 kts | 225° |
| 2026-04-26 18:35 | 56.94345 | 40.87426 | 1216 ft | 150 kts | 173° |
| 2026-04-26 18:36 | 56.93407 | 40.88450 | 1453 ft | 175 kts | 129° |
| 2026-04-26 18:36 | 56.93046 | 40.90717 | 1690 ft | 199 kts | 99° |
| 2026-04-26 18:36 | 56.92863 | 40.93225 | 2165 ft | 199 kts | 108° |
| 2026-04-26 18:36 | 56.92501 | 40.95669 | 2643 ft | 200 kts | 113° |
| 2026-04-26 18:37 | 56.92151 | 40.97258 | 2917 ft | 199 kts | 123° |
| 2026-04-26 18:37 | 56.91332 | 40.99251 | 3392 ft | 194 kts | 139° |
| 2026-04-26 18:37 | 56.90266 | 41.00728 | 3890 ft | 192 kts | 154° |
| 2026-04-26 18:37 | 56.89033 | 41.01600 | 4376 ft | 190 kts | 169° |
| 2026-04-26 18:38 | 56.87747 | 41.01997 | 4846 ft | 190 kts | 172° |
| 2026-04-26 18:38 | 56.86449 | 41.02438 | 5334 ft | 190 kts | 171° |
| 2026-04-26 18:38 | 56.85143 | 41.02872 | 5799 ft | 191 kts | 172° |
| 2026-04-26 18:38 | 56.83833 | 41.03299 | 6248 ft | 191 kts | 172° |
| 2026-04-26 18:39 | 56.82513 | 41.03724 | 6684 ft | 193 kts | 172° |
| 2026-04-26 18:39 | 56.81188 | 41.04152 | 7118 ft | 194 kts | 172° |
| 2026-04-26 18:39 | 56.79859 | 41.04585 | 7563 ft | 194 kts | 172° |
| 2026-04-26 18:39 | 56.78525 | 41.05017 | 7995 ft | 195 kts | 173° |
| 2026-04-26 18:40 | 56.77199 | 41.05444 | 8435 ft | 196 kts | 172° |
| 2026-04-26 18:40 | 56.75850 | 41.05878 | 8870 ft | 197 kts | 173° |
| 2026-04-26 18:40 | 56.74495 | 41.06314 | 9308 ft | 198 kts | 173° |
| 2026-04-26 18:40 | 56.73136 | 41.06752 | 9706 ft | 199 kts | 173° |
| 2026-04-26 18:41 | 56.71770 | 41.07189 | 10098 ft | 200 kts | 173° |
| 2026-04-26 18:41 | 56.70395 | 41.07632 | 10493 ft | 201 kts | 173° |
| 2026-04-26 18:41 | 56.69011 | 41.08075 | 10887 ft | 202 kts | 173° |
| 2026-04-26 18:41 | 56.67624 | 41.08521 | 11278 ft | 203 kts | 173° |
| 2026-04-26 18:42 | 56.66241 | 41.08962 | 11653 ft | 204 kts | 174° |
| 2026-04-26 18:42 | 56.64834 | 41.09415 | 12032 ft | 205 kts | 174° |
| 2026-04-26 18:42 | 56.63434 | 41.10003 | 12387 ft | 209 kts | 166° |
| 2026-04-26 18:42 | 56.62106 | 41.11148 | 12756 ft | 215 kts | 156° |
| 2026-04-26 18:43 | 56.60904 | 41.12831 | 13107 ft | 223 kts | 144° |
| 2026-04-26 18:43 | 56.59892 | 41.15026 | 13417 ft | 230 kts | 134° |
| 2026-04-26 18:43 | 56.58937 | 41.17376 | 13710 ft | 231 kts | 136° |
| 2026-04-26 18:43 | 56.57964 | 41.19700 | 14006 ft | 231 kts | 136° |
| 2026-04-26 18:44 | 56.56989 | 41.22043 | 14293 ft | 233 kts | 136° |
| 2026-04-26 18:44 | 56.56028 | 41.24371 | 14577 ft | 234 kts | 136° |
| 2026-04-26 18:44 | 56.55046 | 41.26744 | 14882 ft | 234 kts | 136° |
| 2026-04-26 18:44 | 56.54067 | 41.29106 | 15214 ft | 234 kts | 136° |
| 2026-04-26 18:45 | 56.53089 | 41.31458 | 15553 ft | 233 kts | 136° |
| 2026-04-26 18:45 | 56.52110 | 41.33812 | 15887 ft | 233 kts | 136° |
| 2026-04-26 18:45 | 56.51135 | 41.36150 | 16228 ft | 233 kts | 136° |
| 2026-04-26 18:45 | 56.50159 | 41.38491 | 16574 ft | 232 kts | 136° |
| 2026-04-26 18:46 | 56.49186 | 41.40825 | 16919 ft | 232 kts | 137° |
| 2026-04-26 18:46 | 56.48217 | 41.43147 | 17263 ft | 231 kts | 137° |
| 2026-04-26 18:46 | 56.47257 | 41.45440 | 17604 ft | 231 kts | 137° |
| 2026-04-26 18:46 | 56.46287 | 41.47759 | 17927 ft | 230 kts | 137° |
| 2026-04-26 18:47 | 56.45318 | 41.50071 | 18229 ft | 230 kts | 137° |
| 2026-04-26 18:47 | 56.44354 | 41.52372 | 18529 ft | 230 kts | 137° |
| 2026-04-26 18:47 | 56.43386 | 41.54680 | 18838 ft | 230 kts | 137° |
| 2026-04-26 18:47 | 56.42419 | 41.56986 | 19160 ft | 230 kts | 137° |
| 2026-04-26 18:48 | 56.41454 | 41.59284 | 19470 ft | 230 kts | 138° |
| 2026-04-26 18:48 | 56.40488 | 41.61583 | 19776 ft | 229 kts | 138° |
| 2026-04-26 18:48 | 56.39523 | 41.63876 | 20084 ft | 229 kts | 138° |
| 2026-04-26 18:48 | 56.38556 | 41.66170 | 20399 ft | 229 kts | 138° |
| 2026-04-26 18:49 | 56.37598 | 41.68443 | 20702 ft | 229 kts | 139° |
| 2026-04-26 18:49 | 56.36633 | 41.70731 | 21009 ft | 229 kts | 139° |
| 2026-04-26 18:49 | 56.35667 | 41.73015 | 21301 ft | 229 kts | 139° |
| 2026-04-26 18:49 | 56.34700 | 41.75305 | 21608 ft | 229 kts | 139° |
| 2026-04-26 18:50 | 56.33735 | 41.77586 | 21910 ft | 229 kts | 139° |
| 2026-04-26 18:50 | 56.32767 | 41.79866 | 22202 ft | 229 kts | 140° |
| 2026-04-26 18:50 | 56.31799 | 41.82147 | 22430 ft | 231 kts | 140° |
| 2026-04-26 18:50 | 56.30804 | 41.84467 | 22435 ft | 243 kts | 139° |
| 2026-04-26 18:51 | 56.29753 | 41.86937 | 22449 ft | 252 kts | 139° |
| 2026-04-26 18:51 | 56.28666 | 41.89498 | 22444 ft | 260 kts | 138° |
| 2026-04-26 18:51 | 56.27569 | 41.92077 | 22442 ft | 266 kts | 138° |
| 2026-04-26 18:51 | 56.26431 | 41.94747 | 22442 ft | 271 kts | 137° |
| 2026-04-26 18:52 | 56.25270 | 41.97470 | 22445 ft | 276 kts | 137° |
| 2026-04-26 18:52 | 56.24092 | 42.00227 | 22446 ft | 280 kts | 137° |
| 2026-04-26 18:52 | 56.22900 | 42.03014 | 22448 ft | 283 kts | 137° |
| 2026-04-26 18:52 | 56.21692 | 42.05833 | 22448 ft | 286 kts | 137° |
| 2026-04-26 18:53 | 56.20546 | 42.08821 | 22443 ft | 296 kts | 129° |
| 2026-04-26 18:53 | 56.19708 | 42.12272 | 22439 ft | 308 kts | 117° |
| 2026-04-26 18:53 | 56.19244 | 42.16057 | 22435 ft | 321 kts | 105° |
| 2026-04-26 18:53 | 56.19044 | 42.20077 | 22442 ft | 324 kts | 103° |
| 2026-04-26 18:54 | 56.18830 | 42.24111 | 22443 ft | 326 kts | 104° |
| 2026-04-26 18:54 | 56.18601 | 42.28175 | 22439 ft | 328 kts | 104° |
| 2026-04-26 18:54 | 56.18377 | 42.32270 | 22443 ft | 330 kts | 103° |
| 2026-04-26 18:54 | 56.18157 | 42.36382 | 22439 ft | 331 kts | 103° |
| 2026-04-26 18:55 | 56.17933 | 42.40489 | 22439 ft | 331 kts | 103° |
| 2026-04-26 18:55 | 56.17705 | 42.44561 | 22445 ft | 331 kts | 103° |
| 2026-04-26 18:55 | 56.17476 | 42.48665 | 22446 ft | 331 kts | 103° |
| 2026-04-26 18:55 | 56.17247 | 42.52767 | 22448 ft | 330 kts | 103° |
| 2026-04-26 18:56 | 56.17016 | 42.56874 | 22449 ft | 330 kts | 103° |
| 2026-04-26 18:56 | 56.16783 | 42.60975 | 22451 ft | 331 kts | 103° |
| 2026-04-26 18:56 | 56.16548 | 42.65091 | 22453 ft | 331 kts | 103° |
| 2026-04-26 18:56 | 56.16310 | 42.69208 | 22453 ft | 331 kts | 103° |
| 2026-04-26 18:57 | 56.16073 | 42.73326 | 22455 ft | 331 kts | 103° |
| 2026-04-26 18:57 | 56.15914 | 42.76059 | 22457 ft | 331 kts | 103° |
| 2026-04-26 18:57 | 56.15595 | 42.81514 | 22460 ft | 332 kts | 103° |
| 2026-04-26 18:57 | 56.15352 | 42.85641 | 22461 ft | 332 kts | 103° |
| 2026-04-26 18:58 | 56.15109 | 42.89755 | 22459 ft | 332 kts | 103° |
| 2026-04-26 18:58 | 56.14865 | 42.93872 | 22464 ft | 332 kts | 103° |
| 2026-04-26 18:58 | 56.14618 | 42.97993 | 22467 ft | 332 kts | 103° |
| 2026-04-26 18:58 | 56.14370 | 43.02109 | 22466 ft | 332 kts | 103° |
| 2026-04-26 18:59 | 56.14120 | 43.06236 | 22469 ft | 332 kts | 103° |
| 2026-04-26 18:59 | 56.13869 | 43.10356 | 22469 ft | 332 kts | 103° |
| 2026-04-26 18:59 | 56.13617 | 43.14483 | 22471 ft | 333 kts | 103° |
| 2026-04-26 18:59 | 56.13363 | 43.18615 | 22478 ft | 333 kts | 103° |
| 2026-04-26 19:00 | 56.13148 | 43.22750 | 22478 ft | 336 kts | 99° |
| 2026-04-26 19:00 | 56.13127 | 43.26953 | 22486 ft | 337 kts | 97° |
| 2026-04-26 19:00 | 56.13103 | 43.31160 | 22486 ft | 337 kts | 97° |
| 2026-04-26 19:00 | 56.13062 | 43.35355 | 22486 ft | 336 kts | 97° |
| 2026-04-26 19:01 | 56.13023 | 43.39503 | 22490 ft | 337 kts | 97° |
| 2026-04-26 19:01 | 56.12988 | 43.43696 | 22489 ft | 337 kts | 97° |
| 2026-04-26 19:01 | 56.12951 | 43.47899 | 22488 ft | 337 kts | 97° |
| 2026-04-26 19:01 | 56.12910 | 43.52091 | 22493 ft | 337 kts | 97° |
| 2026-04-26 19:02 | 56.12867 | 43.56289 | 22490 ft | 337 kts | 97° |
| 2026-04-26 19:02 | 56.12825 | 43.60483 | 22492 ft | 337 kts | 97° |
| 2026-04-26 19:02 | 56.12781 | 43.64683 | 22495 ft | 336 kts | 97° |
| 2026-04-26 19:02 | 56.12750 | 43.67461 | 22487 ft | 336 kts | 97° |
| 2026-04-26 19:03 | 56.12688 | 43.73075 | 22490 ft | 336 kts | 97° |
| 2026-04-26 19:03 | 56.12638 | 43.77261 | 22494 ft | 336 kts | 97° |
| 2026-04-26 19:03 | 56.12586 | 43.81463 | 22488 ft | 337 kts | 97° |
| 2026-04-26 19:03 | 56.12535 | 43.85599 | 22494 ft | 336 kts | 97° |
| 2026-04-26 19:04 | 56.12483 | 43.89796 | 22494 ft | 336 kts | 97° |
| 2026-04-26 19:04 | 56.12427 | 43.93991 | 22493 ft | 337 kts | 97° |
| 2026-04-26 19:04 | 56.12371 | 43.98194 | 22492 ft | 337 kts | 97° |
| 2026-04-26 19:04 | 56.12314 | 44.02401 | 22497 ft | 337 kts | 97° |
| 2026-04-26 19:05 | 56.12194 | 44.10797 | 22503 ft | 337 kts | 97° |
| 2026-04-26 19:05 | 56.12132 | 44.14998 | 22504 ft | 337 kts | 97° |
| 2026-04-26 19:05 | 56.12069 | 44.19198 | 22507 ft | 337 kts | 97° |
| 2026-04-26 19:06 | 56.12006 | 44.23354 | 22509 ft | 337 kts | 97° |
| 2026-04-26 19:06 | 56.11940 | 44.27576 | 22515 ft | 337 kts | 97° |
| 2026-04-26 19:06 | 56.11872 | 44.31774 | 22517 ft | 337 kts | 97° |
| 2026-04-26 19:06 | 56.11803 | 44.35990 | 22521 ft | 337 kts | 97° |
| 2026-04-26 19:07 | 56.11733 | 44.40197 | 22523 ft | 338 kts | 97° |
| 2026-04-26 19:07 | 56.11662 | 44.44398 | 22528 ft | 338 kts | 97° |
| 2026-04-26 19:07 | 56.11589 | 44.48600 | 22530 ft | 338 kts | 97° |
| 2026-04-26 19:07 | 56.11516 | 44.52817 | 22531 ft | 338 kts | 97° |
| 2026-04-26 19:08 | 56.11439 | 44.57021 | 22531 ft | 338 kts | 97° |
| 2026-04-26 19:08 | 56.11361 | 44.61184 | 22539 ft | 338 kts | 97° |
| 2026-04-26 19:08 | 56.11283 | 44.65396 | 22544 ft | 338 kts | 97° |
| 2026-04-26 19:08 | 56.11203 | 44.69613 | 22542 ft | 338 kts | 97° |
| 2026-04-26 19:09 | 56.11121 | 44.73826 | 22546 ft | 338 kts | 97° |
| 2026-04-26 19:09 | 56.11037 | 44.78031 | 22549 ft | 338 kts | 98° |
| 2026-04-26 19:09 | 56.10951 | 44.82244 | 22548 ft | 338 kts | 98° |
| 2026-04-26 19:09 | 56.10864 | 44.86456 | 22550 ft | 338 kts | 98° |
| 2026-04-26 19:10 | 56.10779 | 44.90677 | 22550 ft | 339 kts | 98° |
| 2026-04-26 19:10 | 56.10689 | 44.94897 | 22556 ft | 338 kts | 98° |
| 2026-04-26 19:10 | 56.10599 | 44.99064 | 22559 ft | 338 kts | 98° |
| 2026-04-26 19:10 | 56.10507 | 45.03271 | 22557 ft | 338 kts | 98° |
| 2026-04-26 19:11 | 56.10408 | 45.07493 | 22560 ft | 338 kts | 98° |
| 2026-04-26 19:11 | 56.10305 | 45.11705 | 22561 ft | 338 kts | 98° |
| 2026-04-26 19:11 | 56.10205 | 45.15930 | 22562 ft | 338 kts | 98° |
| 2026-04-26 19:11 | 56.10110 | 45.20092 | 22568 ft | 338 kts | 98° |
| 2026-04-26 19:12 | 56.10013 | 45.24297 | 22569 ft | 337 kts | 98° |
| 2026-04-26 19:12 | 56.09913 | 45.28496 | 22579 ft | 337 kts | 98° |
| 2026-04-26 19:12 | 56.09810 | 45.32707 | 22570 ft | 337 kts | 98° |
| 2026-04-26 19:12 | 56.09707 | 45.36911 | 22578 ft | 337 kts | 98° |
| 2026-04-26 19:13 | 56.09604 | 45.41107 | 22574 ft | 338 kts | 98° |
| 2026-04-26 19:13 | 56.09497 | 45.45318 | 22582 ft | 338 kts | 98° |
| 2026-04-26 19:13 | 56.09390 | 45.49523 | 22582 ft | 338 kts | 98° |
| 2026-04-26 19:13 | 56.09282 | 45.53725 | 22585 ft | 337 kts | 98° |
| 2026-04-26 19:14 | 56.09173 | 45.57876 | 22587 ft | 337 kts | 98° |
| 2026-04-26 19:14 | 56.09062 | 45.62069 | 22588 ft | 337 kts | 98° |
| 2026-04-26 19:14 | 56.08949 | 45.66263 | 22592 ft | 337 kts | 98° |
| 2026-04-26 19:14 | 56.08911 | 45.67686 | 22593 ft | 337 kts | 98° |
| 2026-04-26 19:15 | 56.08719 | 45.74664 | 22594 ft | 337 kts | 98° |
| 2026-04-26 19:15 | 56.08602 | 45.78846 | 22595 ft | 337 kts | 98° |
| 2026-04-26 19:15 | 56.08483 | 45.83049 | 22597 ft | 337 kts | 98° |
| 2026-04-26 19:15 | 56.08363 | 45.87234 | 22601 ft | 337 kts | 98° |
| 2026-04-26 19:16 | 56.08242 | 45.91424 | 22602 ft | 337 kts | 98° |
| 2026-04-26 19:16 | 56.08118 | 45.95611 | 22601 ft | 337 kts | 98° |
| 2026-04-26 19:16 | 56.07994 | 45.99798 | 22604 ft | 337 kts | 98° |
| 2026-04-26 19:16 | 56.07869 | 46.03993 | 22607 ft | 337 kts | 98° |
| 2026-04-26 19:17 | 56.07741 | 46.08176 | 22605 ft | 337 kts | 98° |
| 2026-04-26 19:17 | 56.07614 | 46.12316 | 22607 ft | 337 kts | 98° |
| 2026-04-26 19:17 | 56.07484 | 46.16507 | 22612 ft | 337 kts | 98° |
| 2026-04-26 19:17 | 56.07352 | 46.20693 | 22613 ft | 336 kts | 98° |
| 2026-04-26 19:18 | 56.07220 | 46.24867 | 22616 ft | 336 kts | 98° |
| 2026-04-26 19:18 | 56.07086 | 46.29049 | 22616 ft | 337 kts | 99° |
| 2026-04-26 19:18 | 56.06951 | 46.33239 | 22620 ft | 337 kts | 98° |
| 2026-04-26 19:18 | 56.06813 | 46.37424 | 22623 ft | 337 kts | 98° |
| 2026-04-26 19:19 | 56.06675 | 46.41624 | 22623 ft | 337 kts | 98° |
| 2026-04-26 19:19 | 56.06536 | 46.45814 | 22629 ft | 337 kts | 98° |
| 2026-04-26 19:19 | 56.06395 | 46.49998 | 22631 ft | 337 kts | 98° |
| 2026-04-26 19:19 | 56.06344 | 46.54206 | 22632 ft | 339 kts | 94° |
| 2026-04-26 19:20 | 56.06401 | 46.58420 | 22633 ft | 340 kts | 93° |
| 2026-04-26 19:20 | 56.06421 | 46.59790 | 22632 ft | 340 kts | 93° |
| 2026-04-26 19:20 | 56.06496 | 46.66873 | 22636 ft | 339 kts | 94° |
| 2026-04-26 19:20 | 56.06533 | 46.71041 | 22640 ft | 339 kts | 94° |
| 2026-04-26 19:21 | 56.06576 | 46.75278 | 22642 ft | 340 kts | 94° |
| 2026-04-26 19:21 | 56.06616 | 46.79506 | 22642 ft | 340 kts | 94° |
| 2026-04-26 19:21 | 56.06652 | 46.83744 | 22647 ft | 340 kts | 94° |
| 2026-04-26 19:21 | 56.06687 | 46.87971 | 22649 ft | 340 kts | 94° |
| 2026-04-26 19:22 | 56.06722 | 46.92210 | 22652 ft | 340 kts | 94° |
| 2026-04-26 19:22 | 56.06744 | 46.95020 | 22654 ft | 340 kts | 94° |
| 2026-04-26 19:22 | 56.06786 | 47.00640 | 22658 ft | 340 kts | 94° |
| 2026-04-26 19:22 | 56.06816 | 47.04874 | 22659 ft | 340 kts | 94° |
| 2026-04-26 19:23 | 56.06844 | 47.09107 | 22654 ft | 340 kts | 94° |
| 2026-04-26 19:23 | 56.06862 | 47.11918 | 22655 ft | 340 kts | 94° |
| 2026-04-26 19:23 | 56.06888 | 47.16171 | 22659 ft | 341 kts | 94° |
| 2026-04-26 19:23 | 56.06920 | 47.21791 | 22660 ft | 341 kts | 94° |
| 2026-04-26 19:24 | 56.06935 | 47.24664 | 22657 ft | 341 kts | 94° |
| 2026-04-26 19:24 | 56.06957 | 47.28872 | 22654 ft | 341 kts | 94° |
| 2026-04-26 19:24 | 56.06996 | 47.37355 | 22658 ft | 341 kts | 94° |
| 2026-04-26 19:25 | 56.07014 | 47.41598 | 22656 ft | 341 kts | 94° |
| 2026-04-26 19:25 | 56.07025 | 47.44414 | 22654 ft | 341 kts | 94° |
| 2026-04-26 19:25 | 56.07045 | 47.50093 | 22657 ft | 341 kts | 94° |
| 2026-04-26 19:25 | 56.07059 | 47.54335 | 22658 ft | 341 kts | 94° |
| 2026-04-26 19:26 | 56.07070 | 47.58586 | 22665 ft | 341 kts | 94° |
| 2026-04-26 19:26 | 56.07081 | 47.62828 | 22664 ft | 341 kts | 94° |
| 2026-04-26 19:26 | 56.07090 | 47.67025 | 22662 ft | 341 kts | 94° |
| 2026-04-26 19:26 | 56.07097 | 47.71272 | 22667 ft | 341 kts | 94° |
| 2026-04-26 19:27 | 56.07103 | 47.75524 | 22673 ft | 341 kts | 94° |
| 2026-04-26 19:27 | 56.07108 | 47.79785 | 22671 ft | 341 kts | 94° |
| 2026-04-26 19:27 | 56.07111 | 47.84043 | 22677 ft | 341 kts | 94° |
| 2026-04-26 19:27 | 56.07113 | 47.88304 | 22681 ft | 341 kts | 94° |
| 2026-04-26 19:28 | 56.07113 | 47.92542 | 22682 ft | 341 kts | 94° |
| 2026-04-26 19:28 | 56.07113 | 47.96734 | 22688 ft | 341 kts | 94° |
| 2026-04-26 19:28 | 56.07112 | 48.00981 | 22693 ft | 341 kts | 94° |
| 2026-04-26 19:28 | 56.07109 | 48.05230 | 22697 ft | 341 kts | 94° |
| 2026-04-26 19:29 | 56.07104 | 48.09479 | 22699 ft | 341 kts | 94° |
| 2026-04-26 19:29 | 56.07099 | 48.13730 | 22701 ft | 341 kts | 94° |
| 2026-04-26 19:29 | 56.07092 | 48.17988 | 22710 ft | 341 kts | 94° |
| 2026-04-26 19:29 | 56.07083 | 48.22241 | 22712 ft | 341 kts | 94° |
| 2026-04-26 19:30 | 56.07072 | 48.26497 | 22712 ft | 341 kts | 94° |
| 2026-04-26 19:30 | 56.07061 | 48.30736 | 22711 ft | 341 kts | 94° |
| 2026-04-26 19:30 | 56.07048 | 48.34993 | 22716 ft | 341 kts | 94° |
| 2026-04-26 19:30 | 56.07038 | 48.37804 | 22716 ft | 341 kts | 94° |
| 2026-04-26 19:31 | 56.07017 | 48.43464 | 22715 ft | 341 kts | 94° |
| 2026-04-26 19:31 | 56.07000 | 48.47711 | 22716 ft | 341 kts | 94° |
| 2026-04-26 19:31 | 56.06980 | 48.51963 | 22723 ft | 341 kts | 94° |
| 2026-04-26 19:31 | 56.06961 | 48.56209 | 22720 ft | 341 kts | 94° |
| 2026-04-26 19:32 | 56.06940 | 48.60458 | 22728 ft | 341 kts | 94° |
| 2026-04-26 19:32 | 56.06916 | 48.64707 | 22723 ft | 341 kts | 94° |
| 2026-04-26 19:32 | 56.06892 | 48.68974 | 22727 ft | 341 kts | 94° |
| 2026-04-26 19:32 | 56.06867 | 48.73227 | 22724 ft | 341 kts | 94° |
| 2026-04-26 19:33 | 56.06839 | 48.77423 | 22729 ft | 341 kts | 94° |
| 2026-04-26 19:33 | 56.06810 | 48.81728 | 22735 ft | 341 kts | 94° |
| 2026-04-26 19:33 | 56.06780 | 48.85968 | 22734 ft | 342 kts | 94° |
| 2026-04-26 19:33 | 56.06749 | 48.90164 | 22734 ft | 341 kts | 94° |
| 2026-04-26 19:34 | 56.06716 | 48.94411 | 22739 ft | 341 kts | 94° |
| 2026-04-26 19:34 | 56.06682 | 48.98664 | 22740 ft | 341 kts | 94° |
| 2026-04-26 19:34 | 56.06645 | 49.02908 | 22743 ft | 341 kts | 94° |
| 2026-04-26 19:34 | 56.06608 | 49.07163 | 22745 ft | 341 kts | 94° |
| 2026-04-26 19:35 | 56.06568 | 49.11426 | 22744 ft | 341 kts | 94° |
| 2026-04-26 19:35 | 56.06526 | 49.15676 | 22753 ft | 341 kts | 94° |
| 2026-04-26 19:35 | 56.06484 | 49.19933 | 22753 ft | 342 kts | 94° |
| 2026-04-26 19:35 | 56.06441 | 49.24133 | 22751 ft | 342 kts | 94° |
| 2026-04-26 19:36 | 56.06396 | 49.28379 | 22752 ft | 341 kts | 94° |
| 2026-04-26 19:36 | 56.06364 | 49.31247 | 22757 ft | 341 kts | 94° |
| 2026-04-26 19:36 | 56.06302 | 49.36877 | 22758 ft | 341 kts | 94° |
| 2026-04-26 19:36 | 56.06251 | 49.41135 | 22758 ft | 342 kts | 94° |
| 2026-04-26 19:37 | 56.06200 | 49.45389 | 22758 ft | 341 kts | 94° |
| 2026-04-26 19:37 | 56.06147 | 49.49636 | 22758 ft | 342 kts | 94° |
| 2026-04-26 19:37 | 56.06094 | 49.53884 | 22763 ft | 342 kts | 94° |
| 2026-04-26 19:37 | 56.06038 | 49.58140 | 22761 ft | 341 kts | 94° |
| 2026-04-26 19:38 | 56.05982 | 49.62336 | 22767 ft | 342 kts | 94° |
| 2026-04-26 19:38 | 56.05925 | 49.66586 | 22764 ft | 342 kts | 94° |
| 2026-04-26 19:38 | 56.05866 | 49.70837 | 22771 ft | 342 kts | 94° |
| 2026-04-26 19:38 | 56.05804 | 49.75085 | 22771 ft | 342 kts | 94° |
| 2026-04-26 19:39 | 56.05742 | 49.79357 | 22777 ft | 342 kts | 94° |
| 2026-04-26 19:39 | 56.05678 | 49.83609 | 22775 ft | 342 kts | 94° |
| 2026-04-26 19:39 | 56.05613 | 49.87862 | 22776 ft | 342 kts | 94° |
| 2026-04-26 19:39 | 56.05547 | 49.92113 | 22778 ft | 342 kts | 94° |
| 2026-04-26 19:40 | 56.05479 | 49.96378 | 22786 ft | 342 kts | 94° |
| 2026-04-26 19:40 | 56.05410 | 50.00633 | 22785 ft | 343 kts | 94° |
| 2026-04-26 19:40 | 56.05338 | 50.04894 | 22781 ft | 342 kts | 94° |
| 2026-04-26 19:40 | 56.05266 | 50.09155 | 22787 ft | 342 kts | 94° |
| 2026-04-26 19:41 | 56.05193 | 50.13368 | 22786 ft | 343 kts | 94° |
| 2026-04-26 19:41 | 56.05116 | 50.17647 | 22789 ft | 343 kts | 94° |
| 2026-04-26 19:41 | 56.05038 | 50.21911 | 22790 ft | 343 kts | 94° |
| 2026-04-26 19:41 | 56.04987 | 50.24730 | 22791 ft | 343 kts | 94° |
| 2026-04-26 19:42 | 56.04881 | 50.30411 | 22463 ft | 338 kts | 94° |
| 2026-04-26 19:42 | 56.04800 | 50.34590 | 22043 ft | 334 kts | 94° |
| 2026-04-26 19:42 | 56.04721 | 50.38718 | 21621 ft | 331 kts | 94° |
| 2026-04-26 19:42 | 56.04639 | 50.42775 | 21198 ft | 330 kts | 94° |
| 2026-04-26 19:43 | 56.04556 | 50.46888 | 20767 ft | 330 kts | 94° |
| 2026-04-26 19:43 | 56.04473 | 50.51004 | 20329 ft | 331 kts | 94° |
| 2026-04-26 19:43 | 56.04386 | 50.55126 | 19894 ft | 332 kts | 94° |
| 2026-04-26 19:43 | 56.04234 | 50.59257 | 19436 ft | 331 kts | 102° |
| 2026-04-26 19:44 | 56.03410 | 50.63038 | 18957 ft | 325 kts | 126° |
| 2026-04-26 19:44 | 56.01919 | 50.65994 | 18515 ft | 319 kts | 142° |
| 2026-04-26 19:44 | 56.00237 | 50.68573 | 18094 ft | 319 kts | 143° |
| 2026-04-26 19:44 | 55.98645 | 50.71376 | 17610 ft | 323 kts | 136° |
| 2026-04-26 19:45 | 55.97240 | 50.74501 | 17141 ft | 323 kts | 131° |
| 2026-04-26 19:45 | 55.95850 | 50.77650 | 16683 ft | 322 kts | 133° |
| 2026-04-26 19:45 | 55.94397 | 50.80619 | 16238 ft | 320 kts | 136° |
| 2026-04-26 19:45 | 55.92916 | 50.83581 | 15986 ft | 320 kts | 135° |
| 2026-04-26 19:46 | 55.91460 | 50.86615 | 15835 ft | 322 kts | 134° |
| 2026-04-26 19:46 | 55.90010 | 50.89665 | 15679 ft | 322 kts | 134° |
| 2026-04-26 19:46 | 55.88543 | 50.92694 | 15502 ft | 322 kts | 134° |
| 2026-04-26 19:46 | 55.87097 | 50.95668 | 15122 ft | 321 kts | 134° |
| 2026-04-26 19:47 | 55.85642 | 50.98674 | 14703 ft | 320 kts | 134° |
| 2026-04-26 19:47 | 55.84679 | 51.00663 | 14424 ft | 318 kts | 134° |
| 2026-04-26 19:47 | 55.82757 | 51.04622 | 13865 ft | 313 kts | 134° |
| 2026-04-26 19:47 | 55.81338 | 51.07537 | 13434 ft | 309 kts | 134° |
| 2026-04-26 19:48 | 55.79933 | 51.10422 | 13018 ft | 307 kts | 134° |
| 2026-04-26 19:48 | 55.78557 | 51.13246 | 12619 ft | 306 kts | 134° |
| 2026-04-26 19:48 | 55.77164 | 51.16099 | 12214 ft | 304 kts | 134° |
| 2026-04-26 19:48 | 55.75780 | 51.18930 | 11816 ft | 303 kts | 134° |
| 2026-04-26 19:49 | 55.74401 | 51.21748 | 11421 ft | 301 kts | 134° |
| 2026-04-26 19:49 | 55.73030 | 51.24547 | 11022 ft | 300 kts | 134° |
| 2026-04-26 19:49 | 55.71666 | 51.27327 | 10635 ft | 298 kts | 134° |
| 2026-04-26 19:49 | 55.70304 | 51.30100 | 10239 ft | 297 kts | 134° |
| 2026-04-26 19:50 | 55.68948 | 51.32857 | 9849 ft | 295 kts | 134° |
| 2026-04-26 19:50 | 55.67603 | 51.35590 | 9441 ft | 293 kts | 134° |
| 2026-04-26 19:50 | 55.66263 | 51.38311 | 9050 ft | 291 kts | 134° |
| 2026-04-26 19:50 | 55.64934 | 51.41005 | 8665 ft | 289 kts | 135° |
| 2026-04-26 19:51 | 55.63630 | 51.43645 | 8287 ft | 288 kts | 135° |
| 2026-04-26 19:51 | 55.62313 | 51.46307 | 7916 ft | 285 kts | 135° |
| 2026-04-26 19:51 | 55.61008 | 51.48945 | 7535 ft | 284 kts | 135° |
| 2026-04-26 19:51 | 55.59712 | 51.51560 | 7164 ft | 281 kts | 135° |
| 2026-04-26 19:52 | 55.58425 | 51.54159 | 6793 ft | 279 kts | 135° |
| 2026-04-26 19:52 | 55.57144 | 51.56733 | 6455 ft | 277 kts | 135° |
| 2026-04-26 19:52 | 55.55873 | 51.59291 | 6178 ft | 276 kts | 135° |
| 2026-04-26 19:52 | 55.54607 | 51.61836 | 5824 ft | 275 kts | 135° |
| 2026-04-26 19:53 | 55.53364 | 51.64332 | 5466 ft | 273 kts | 136° |
| 2026-04-26 19:53 | 55.52112 | 51.66844 | 5104 ft | 271 kts | 136° |
| 2026-04-26 19:53 | 55.50871 | 51.69331 | 4763 ft | 269 kts | 136° |
| 2026-04-26 19:53 | 55.49621 | 51.71761 | 4558 ft | 265 kts | 140° |
| 2026-04-26 19:54 | 55.48270 | 51.73974 | 4394 ft | 265 kts | 142° |
| 2026-04-26 19:54 | 55.46912 | 51.76182 | 4241 ft | 266 kts | 142° |
| 2026-04-26 19:54 | 55.45561 | 51.78410 | 4082 ft | 265 kts | 142° |
| 2026-04-26 19:54 | 55.44212 | 51.80631 | 3927 ft | 265 kts | 142° |
| 2026-04-26 19:55 | 55.42862 | 51.82845 | 3770 ft | 265 kts | 142° |
| 2026-04-26 19:55 | 55.41514 | 51.85058 | 3621 ft | 264 kts | 143° |
| 2026-04-26 19:55 | 55.40199 | 51.87342 | 3468 ft | 269 kts | 136° |
| 2026-04-26 19:55 | 55.39197 | 51.90152 | 3295 ft | 275 kts | 121° |
| 2026-04-26 19:56 | 55.38608 | 51.93380 | 3134 ft | 280 kts | 105° |
| 2026-04-26 19:56 | 55.38505 | 51.96827 | 3006 ft | 284 kts | 89° |
| 2026-04-26 19:56 | 55.38912 | 52.00235 | 2997 ft | 287 kts | 73° |
| 2026-04-26 19:56 | 55.39819 | 52.03371 | 3000 ft | 289 kts | 56° |
| 2026-04-26 19:57 | 55.41081 | 52.05953 | 2995 ft | 269 kts | 45° |
| 2026-04-26 19:57 | 55.42309 | 52.08239 | 2993 ft | 250 kts | 46° |
| 2026-04-26 19:57 | 55.43521 | 52.10545 | 2995 ft | 266 kts | 46° |
| 2026-04-26 19:57 | 55.44826 | 52.13016 | 3008 ft | 282 kts | 46° |
| 2026-04-26 19:58 | 55.46179 | 52.15573 | 3011 ft | 287 kts | 46° |
| 2026-04-26 19:58 | 55.47548 | 52.18156 | 3012 ft | 289 kts | 46° |
| 2026-04-26 19:58 | 55.48916 | 52.20750 | 3010 ft | 288 kts | 46° |
| 2026-04-26 19:58 | 55.50278 | 52.23335 | 3010 ft | 288 kts | 46° |
| 2026-04-26 19:59 | 55.51642 | 52.25917 | 3006 ft | 287 kts | 46° |
| 2026-04-26 19:59 | 55.53011 | 52.28515 | 3011 ft | 288 kts | 46° |
| 2026-04-26 19:59 | 55.54369 | 52.31100 | 3013 ft | 287 kts | 47° |
| 2026-04-26 19:59 | 55.55728 | 52.33693 | 3012 ft | 288 kts | 46° |
| 2026-04-26 20:00 | 55.57075 | 52.36256 | 3007 ft | 288 kts | 46° |
| 2026-04-26 20:00 | 55.58436 | 52.38848 | 3008 ft | 287 kts | 46° |
| 2026-04-26 20:00 | 55.59797 | 52.41425 | 3001 ft | 286 kts | 44° |
| 2026-04-26 20:00 | 55.61444 | 52.43329 | 2995 ft | 283 kts | 18° |
| 2026-04-26 20:01 | 55.63367 | 52.43886 | 2992 ft | 276 kts | 354° |
| 2026-04-26 20:01 | 55.65202 | 52.43160 | 2903 ft | 267 kts | 331° |
| 2026-04-26 20:01 | 55.66705 | 52.41357 | 2815 ft | 257 kts | 310° |
| 2026-04-26 20:01 | 55.67712 | 52.38864 | 2804 ft | 238 kts | 290° |
| 2026-04-26 20:02 | 55.68152 | 52.36271 | 2793 ft | 204 kts | 273° |
| 2026-04-26 20:02 | 55.68158 | 52.33905 | 2802 ft | 182 kts | 258° |
| 2026-04-26 20:02 | 55.67833 | 52.31826 | 2791 ft | 171 kts | 244° |
| 2026-04-26 20:02 | 55.67666 | 52.31214 | 2791 ft | 168 kts | 241° |
| 2026-04-26 20:03 | 55.66623 | 52.28653 | 2789 ft | 143 kts | 229° |
| 2026-04-26 20:03 | 55.65984 | 52.27370 | 2794 ft | 139 kts | 227° |
| 2026-04-26 20:03 | 55.65340 | 52.26103 | 2796 ft | 138 kts | 228° |
| 2026-04-26 20:03 | 55.64705 | 52.24884 | 2792 ft | 129 kts | 227° |
| 2026-04-26 20:04 | 55.64110 | 52.23755 | 2694 ft | 122 kts | 227° |
| 2026-04-26 20:04 | 55.63546 | 52.22685 | 2539 ft | 116 kts | 227° |
| 2026-04-26 20:04 | 55.63009 | 52.21662 | 2397 ft | 109 kts | 226° |
| 2026-04-26 20:04 | 55.62510 | 52.20713 | 2238 ft | 100 kts | 226° |
| 2026-04-26 20:05 | 55.62068 | 52.19872 | 2109 ft | 89 kts | 226° |
| 2026-04-26 20:05 | 55.61659 | 52.19091 | 1984 ft | 84 kts | 225° |
| 2026-04-26 20:05 | 55.61269 | 52.18356 | 1876 ft | 82 kts | 224° |
| 2026-04-26 20:05 | 55.60872 | 52.17595 | 1766 ft | 84 kts | 224° |
| 2026-04-26 20:06 | 55.60469 | 52.16839 | 1647 ft | 84 kts | 224° |
| 2026-04-26 20:06 | 55.60066 | 52.16071 | 1518 ft | 87 kts | 221° |
| 2026-04-26 20:06 | 55.59632 | 52.15248 | 1386 ft | 94 kts | 224° |
| 2026-04-26 20:06 | 55.59174 | 52.14372 | 1246 ft | 100 kts | 225° |
| 2026-04-26 20:07 | 55.58699 | 52.13476 | 1106 ft | 102 kts | 225° |
| 2026-04-26 20:07 | 55.58216 | 52.12554 | 963 ft | 102 kts | 226° |
| 2026-04-26 20:07 | 55.57726 | 52.11629 | 826 ft | 104 kts | 226° |
| 2026-04-26 20:07 | 55.57221 | 52.10687 | 680 ft | 103 kts | 222° |
| 2026-04-26 20:08 | 55.56768 | 52.09857 | 648 ft | 80 kts | 229° |
| 2026-04-26 20:08 | 55.56609 | 52.09530 | 645 ft | 36 kts | 229° |
| 2026-04-26 20:08 | 55.56455 | 52.09240 | 645 ft | 29 kts | 227° |
| 2026-04-26 20:08 | 55.56335 | 52.09012 | 647 ft | 24 kts | 227° |
| 2026-04-26 20:09 | 55.56313 | 52.08971 | 647 ft | 0 kts | 227° |
| 2026-04-26 20:09 | 55.56298 | 52.08939 | 647 ft | 9 kts | 227° |
| 2026-04-26 20:09 | 55.56231 | 52.08812 | 647 ft | 19 kts | 228° |
| 2026-04-26 20:10 | 55.56140 | 52.08641 | 646 ft | 20 kts | 227° |
| 2026-04-26 20:10 | 55.56033 | 52.08439 | 645 ft | 25 kts | 226° |
| 2026-04-26 20:10 | 55.55904 | 52.08196 | 646 ft | 28 kts | 227° |
| 2026-04-26 20:10 | 55.55806 | 52.08012 | 647 ft | 17 kts | 226° |
| 2026-04-26 20:11 | 55.55728 | 52.07915 | 648 ft | 11 kts | 196° |
| 2026-04-26 20:11 | 55.55734 | 52.07883 | 647 ft | 7 kts | 32° |
| 2026-04-26 20:11 | 55.55775 | 52.07948 | 647 ft | 11 kts | 43° |
| 2026-04-26 20:12 | 55.55963 | 52.08301 | 645 ft | 30 kts | 47° |
| 2026-04-26 20:12 | 55.56117 | 52.08594 | 646 ft | 30 kts | 47° |
| 2026-04-26 20:12 | 55.56244 | 52.08835 | 648 ft | 24 kts | 47° |
| 2026-04-26 20:12 | 55.56348 | 52.09032 | 647 ft | 20 kts | 46° |
| 2026-04-26 20:13 | 55.56440 | 52.09205 | 645 ft | 21 kts | 47° |
| 2026-04-26 20:13 | 55.56552 | 52.09417 | 645 ft | 26 kts | 47° |
| 2026-04-26 20:13 | 55.56665 | 52.09632 | 647 ft | 21 kts | 47° |
| 2026-04-26 20:13 | 55.56695 | 52.09787 | 647 ft | 13 kts | 135° |
| 2026-04-26 20:14 | 55.56638 | 52.09881 | 646 ft | 10 kts | 136° |
| 2026-04-26 20:14 | 55.56634 | 52.09888 | 646 ft | 0 kts | 136° |
| 2026-04-26 20:14 | 55.56617 | 52.09916 | 646 ft | 9 kts | 136° |
| 2026-04-26 20:15 | 55.56593 | 52.09955 | 646 ft | 0 kts | 137° |
| 2026-04-26 20:15 | 55.56584 | 52.09969 | 646 ft | 6 kts | 137° |
| 2026-04-26 20:15 | 55.56548 | 52.10027 | 646 ft | 2 kts | 136° |
| 2026-04-26 20:15 | 55.56533 | 52.10052 | 646 ft | 7 kts | 137° |
| 2026-04-26 20:16 | 55.56525 | 52.10064 | 646 ft | 0 kts | 138° |